TimeEET,TemperatureF,Dew PointF,Humidity,Sea Level PressureIn,VisibilityMPH,Wind Direction,Wind SpeedMPH,Gust SpeedMPH,PrecipitationIn,Events,Conditions,WindDirDegrees,DateUTC
12:20 AM,55.4,41.0,58,30.01,6.2,North,3.5,-,N/A,,Mostly Cloudy,360,2012-11-07 22:20:00
12:50 AM,50.0,41.0,71,30.01,6.2,Calm,Calm,-,N/A,,Mostly Cloudy,0,2012-11-07 22:50:00
1:20 AM,46.4,39.2,76,30.01,6.2,Calm,Calm,-,N/A,,Mostly Cloudy,0,2012-11-07 23:20:00
1:50 AM,46.4,39.2,76,30.01,6.2,Calm,Calm,-,N/A,,Mostly Cloudy,0,2012-11-07 23:50:00
2:00 AM,47,40,67,,12,Calm,Calm,,,,Partly Cloudy,,2012-11-08 00:00:00
2:20 AM,44.6,39.2,81,30.01,6.2,Calm,Calm,-,N/A,,Mostly Cloudy,0,2012-11-08 00:20:00
2:50 AM,44.6,39.2,81,29.98,6.2,Calm,Calm,-,N/A,,Mostly Cloudy,0,2012-11-08 00:50:00
3:20 AM,44.6,39.2,81,29.98,6.2,ENE,3.5,-,N/A,,Mostly Cloudy,60,2012-11-08 01:20:00
3:50 AM,44.6,39.2,81,29.98,6.2,NE,1.2,-,N/A,,Mostly Cloudy,40,2012-11-08 01:50:00
4:20 AM,42.8,37.4,81,29.98,6.2,Calm,Calm,-,N/A,,Mostly Cloudy,0,2012-11-08 02:20:00
4:50 AM,44.6,39.2,81,29.98,6.2,WNW,1.2,-,N/A,,Mostly Cloudy,290,2012-11-08 02:50:00
5:20 AM,42.8,39.2,87,29.98,6.2,Calm,Calm,-,N/A,,Mostly Cloudy,0,2012-11-08 03:20:00
5:50 AM,42.8,39.2,87,29.98,6.2,Calm,Calm,-,N/A,,Mostly Cloudy,0,2012-11-08 03:50:00
6:20 AM,44.6,41.0,87,29.98,6.2,Calm,Calm,-,N/A,,Mostly Cloudy,0,2012-11-08 04:20:00
6:50 AM,42.8,39.2,87,29.98,6.2,NNE,3.5,-,N/A,,Mostly Cloudy,30,2012-11-08 04:50:00
7:20 AM,46.4,41.0,81,29.98,6.2,NNE,4.6,-,N/A,,Mostly Cloudy,20,2012-11-08 05:20:00
7:50 AM,51.8,42.8,71,29.98,6.2,North,3.5,-,N/A,,Mostly Cloudy,360,2012-11-08 05:50:00
8:00 AM,51,42,62,,12,North,3.5,,,,Partly Cloudy,0,2012-11-08 06:00:00
8:20 AM,51.8,42.8,71,29.98,6.2,Calm,Calm,-,N/A,,Mostly Cloudy,0,2012-11-08 06:20:00
8:50 AM,55.4,42.8,63,29.98,6.2,Variable,1.2,-,N/A,,Mostly Cloudy,0,2012-11-08 06:50:00
9:20 AM,59.0,42.8,55,29.98,6.2,South,3.5,-,N/A,,Mostly Cloudy,190,2012-11-08 07:20:00
9:50 AM,59.0,42.8,55,29.95,6.2,SSE,4.6,-,N/A,,Mostly Cloudy,160,2012-11-08 07:50:00
10:20 AM,60.8,44.6,55,29.95,6.2,SW,4.6,-,N/A,,Mostly Cloudy,220,2012-11-08 08:20:00
10:50 AM,62.6,44.6,52,29.95,6.2,South,3.5,-,N/A,,Mostly Cloudy,170,2012-11-08 08:50:00
11:20 AM,62.6,44.6,52,29.92,6.2,Calm,Calm,-,N/A,,Mostly Cloudy,0,2012-11-08 09:20:00
11:50 AM,64.4,41.0,42,29.89,6.2,Calm,Calm,-,N/A,,Mostly Cloudy,0,2012-11-08 09:50:00
12:20 PM,62.6,42.8,48,29.89,6.2,Calm,Calm,-,N/A,,Mostly Cloudy,0,2012-11-08 10:20:00
12:50 PM,62.6,42.8,48,29.89,6.2,Calm,Calm,-,N/A,,Mostly Cloudy,0,2012-11-08 10:50:00
1:20 PM,64.4,42.8,45,29.86,6.2,Calm,Calm,-,N/A,,Mostly Cloudy,0,2012-11-08 11:20:00
1:50 PM,64.4,42.8,45,29.86,6.2,Calm,Calm,-,N/A,,Mostly Cloudy,0,2012-11-08 11:50:00
2:00 PM,64,43,34,,12,Calm,Calm,,,,Partly Cloudy,,2012-11-08 12:00:00
2:20 PM,64.4,42.8,45,29.89,6.2,Calm,Calm,-,N/A,,Overcast,0,2012-11-08 12:20:00
2:50 PM,62.6,44.6,52,29.86,6.2,West,4.6,-,N/A,Rain,Light Rain,260,2012-11-08 12:50:00
3:20 PM,60.8,46.4,59,29.89,6.2,West,8.1,-,N/A,Rain,Light Rain,280,2012-11-08 13:20:00
3:50 PM,59.0,46.4,63,29.89,6.2,West,8.1,-,N/A,Rain,Light Rain,270,2012-11-08 13:50:00
4:20 PM,53.6,48.2,82,29.89,6.2,WSW,11.5,-,N/A,Rain,Light Rain,250,2012-11-08 14:20:00
4:50 PM,51.8,48.2,88,29.92,5.6,SSW,5.8,-,N/A,Rain,Light Rain,200,2012-11-08 14:50:00
5:20 PM,50.0,48.2,94,29.92,5.0,Variable,1.2,-,N/A,Rain,Light Rain,0,2012-11-08 15:20:00
5:50 PM,50.0,48.2,94,29.92,3.7,SW,4.6,-,N/A,Rain,Light Rain,220,2012-11-08 15:50:00
6:20 PM,50.0,48.2,94,29.95,6.2,SSW,4.6,-,N/A,Rain,Light Rain,200,2012-11-08 16:20:00
6:50 PM,50.0,48.2,94,29.92,3.7,Calm,Calm,-,N/A,Rain,Light Rain,0,2012-11-08 16:50:00
7:20 PM,50.0,48.2,94,29.92,3.7,SW,1.2,-,N/A,Rain,Light Rain,220,2012-11-08 17:20:00
7:50 PM,50.0,48.2,94,29.92,4.3,West,1.2,-,N/A,Rain,Light Rain,270,2012-11-08 17:50:00
8:00 PM,49,48,94,,4,West,1.2,,,Rain,Light Rain,270,2012-11-08 18:00:00
8:20 PM,50.0,48.2,94,29.92,3.7,WSW,1.2,-,N/A,,Overcast,240,2012-11-08 18:20:00
8:50 PM,50.0,48.2,94,29.95,3.7,WNW,2.3,-,N/A,Rain,Light Rain,290,2012-11-08 18:50:00
9:20 PM,50.0,48.2,94,29.92,4.3,WNW,3.5,-,N/A,Rain,Light Rain,290,2012-11-08 19:20:00
9:50 PM,50.0,48.2,94,29.92,3.7,Calm,Calm,-,N/A,Rain,Light Rain,0,2012-11-08 19:50:00
10:20 PM,50.0,48.2,94,29.92,3.7,Variable,1.2,-,N/A,Rain,Light Rain,0,2012-11-08 20:20:00
10:50 PM,50.0,48.2,94,29.92,3.7,NW,3.5,-,N/A,Rain,Light Rain,310,2012-11-08 20:50:00
11:20 PM,50.0,48.2,94,29.92,3.7,Calm,Calm,-,N/A,Rain,Light Rain,0,2012-11-08 21:20:00
11:50 PM,50.0,48.2,94,29.92,3.7,Calm,Calm,-,N/A,Rain,Light Rain,0,2012-11-08 21:50:00